createdAt,value
2023-03-31T00:01:24.394Z,100902.39
2023-03-31T00:04:05.105Z,100897.20
2023-03-31T00:06:38.702Z,100896.73
2023-03-31T00:09:19.112Z,100892.53
2023-03-31T00:11:47.268Z,100894.80
2023-03-31T00:14:18.044Z,100893.39
2023-03-31T00:16:46.942Z,100889.41
2023-03-31T00:19:18.700Z,100885.31
2023-03-31T00:21:47.974Z,100886.86
2023-03-31T00:24:16.557Z,100878.50
2023-03-31T00:26:45.180Z,100873.48
2023-03-31T00:29:13.720Z,100874.95
2023-03-31T00:31:41.871Z,100871.39
2023-03-31T00:34:10.031Z,100867.50
2023-03-31T00:36:46.006Z,100869.00
2023-03-31T00:39:16.961Z,100866.98
2023-03-31T00:41:45.460Z,100865.46
2023-03-31T00:44:23.162Z,100863.56
2023-03-31T00:46:53.249Z,100867.56
2023-03-31T00:49:21.473Z,100869.75
2023-03-31T00:51:50.191Z,100867.48
2023-03-31T00:54:19.722Z,100866.65
2023-03-31T00:56:53.520Z,100867.92
2023-03-31T00:59:22.223Z,100858.96
2023-03-31T01:01:50.741Z,100858.63
2023-03-31T01:04:22.917Z,100852.27
2023-03-31T01:06:57.539Z,100851.05
2023-03-31T01:09:25.860Z,100850.88
2023-03-31T01:11:54.090Z,100854.21
2023-03-31T01:14:22.195Z,100853.16
2023-03-31T01:16:53.803Z,100853.77
2023-03-31T01:19:48.204Z,100852.23
2023-03-31T01:22:22.699Z,100855.79
2023-03-31T01:25:09.656Z,100854.03
2023-03-31T01:27:39.868Z,100848.10
2023-03-31T01:30:16.943Z,100847.58
2023-03-31T01:33:09.434Z,100844.58
2023-03-31T01:35:47.975Z,100841.56
2023-03-31T01:38:34.786Z,100840.50
2023-03-31T01:41:08.738Z,100839.82
2023-03-31T01:43:40.334Z,100832.97
2023-03-31T01:46:11.639Z,100827.34
2023-03-31T01:48:42.769Z,100822.41
2023-03-31T01:51:16.321Z,100818.95
2023-03-31T01:54:04.761Z,100815.14
2023-03-31T01:56:41.356Z,100806.38
2023-03-31T01:59:12.445Z,100804.85
2023-03-31T02:02:01.764Z,100801.30
2023-03-31T02:04:32.749Z,100796.83
2023-03-31T02:07:04.620Z,100802.06
2023-03-31T02:09:34.531Z,100798.84
2023-03-31T02:12:04.512Z,100802.30
2023-03-31T02:14:37.422Z,100800.62
2023-03-31T02:17:30.534Z,100798.25
2023-03-31T02:20:08.420Z,100795.36
2023-03-31T02:22:37.791Z,100795.79
2023-03-31T02:25:06.547Z,100797.40
2023-03-31T02:27:35.992Z,100792.66
2023-03-31T02:30:04.419Z,100795.02
2023-03-31T02:32:43.550Z,100797.39
2023-03-31T02:35:22.270Z,100796.39
2023-03-31T02:37:50.439Z,100791.56
2023-03-31T02:40:19.702Z,100791.34
2023-03-31T02:42:48.645Z,100789.88
2023-03-31T02:45:39.620Z,100786.95
2023-03-31T02:48:10.891Z,100781.03
2023-03-31T02:50:46.414Z,100780.10
2023-03-31T02:53:24.232Z,100780.40
2023-03-31T02:56:01.256Z,100775.62
2023-03-31T02:58:34.786Z,100772.80
2023-03-31T03:01:03.416Z,100765.05
2023-03-31T03:03:42.317Z,100761.21
2023-03-31T03:06:27.964Z,100760.04
2023-03-31T03:09:19.536Z,100760.08
2023-03-31T03:12:06.869Z,100758.92
2023-03-31T03:14:36.566Z,100753.42
2023-03-31T03:17:07.216Z,100753.75
2023-03-31T03:19:35.703Z,100753.56
2023-03-31T03:22:03.818Z,100752.14
2023-03-31T03:24:34.606Z,100747.34
2023-03-31T03:27:08.910Z,100745.73
2023-03-31T03:29:37.139Z,100739.14
2023-03-31T03:32:05.667Z,100736.45
2023-03-31T03:34:34.415Z,100730.24
2023-03-31T03:37:02.692Z,100729.23
2023-03-31T03:39:30.900Z,100725.03
2023-03-31T03:41:59.414Z,100720.66
2023-03-31T03:44:27.891Z,100720.14
2023-03-31T03:46:56.343Z,100714.85
2023-03-31T03:49:24.966Z,100714.49
2023-03-31T03:51:53.984Z,100713.21
2023-03-31T03:54:22.208Z,100706.61
2023-03-31T03:56:50.682Z,100702.46
2023-03-31T03:59:18.874Z,100697.70
2023-03-31T04:01:47.533Z,100691.73
2023-03-31T04:04:17.088Z,100690.13
2023-03-31T04:06:46.419Z,100685.55
2023-03-31T04:09:14.793Z,100682.37
2023-03-31T04:11:43.575Z,100683.98
2023-03-31T04:14:11.790Z,100686.45
2023-03-31T04:16:47.072Z,100682.04
2023-03-31T04:19:17.779Z,100683.13
2023-03-31T04:21:46.216Z,100682.65
2023-03-31T04:24:22.208Z,100682.02
2023-03-31T04:26:51.220Z,100678.19
2023-03-31T04:29:22.716Z,100675.80
2023-03-31T04:31:52.852Z,100670.16
2023-03-31T04:34:27.019Z,100667.28
2023-03-31T04:36:56.611Z,100668.74
2023-03-31T04:39:27.133Z,100664.58
2023-03-31T04:41:57.548Z,100661.74
2023-03-31T04:44:26.351Z,100660.98
2023-03-31T04:46:54.945Z,100657.27
2023-03-31T04:49:25.335Z,100656.47
2023-03-31T04:51:53.771Z,100654.08
2023-03-31T04:54:25.785Z,100649.20
2023-03-31T04:56:54.939Z,100646.66
2023-03-31T04:59:23.240Z,100643.91
2023-03-31T05:01:51.460Z,100644.98
2023-03-31T05:04:21.015Z,100638.84
2023-03-31T05:06:49.117Z,100631.77
2023-03-31T05:09:17.604Z,100628.70
2023-03-31T05:11:45.822Z,100628.78
2023-03-31T05:14:14.357Z,100623.99
2023-03-31T05:16:43.572Z,100622.17
2023-03-31T05:19:11.802Z,100622.84
2023-03-31T05:21:39.910Z,100624.34
2023-03-31T05:24:08.321Z,100625.48
2023-03-31T05:26:36.633Z,100617.42
2023-03-31T05:29:05.760Z,100618.92
2023-03-31T05:31:34.147Z,100619.86
2023-03-31T05:34:02.443Z,100616.54
2023-03-31T05:36:32.567Z,100611.24
2023-03-31T05:39:01.447Z,100611.45
2023-03-31T05:41:30.501Z,100608.53
2023-03-31T05:43:58.688Z,100606.64
2023-03-31T05:46:27.567Z,100597.14
2023-03-31T05:48:56.735Z,100605.45
2023-03-31T05:51:25.448Z,100599.17
2023-03-31T05:53:53.800Z,100603.02
2023-03-31T05:56:22.462Z,100605.21
2023-03-31T05:58:50.768Z,100603.66
2023-03-31T06:01:20.238Z,100603.63
2023-03-31T06:03:50.258Z,100604.97
2023-03-31T06:06:18.743Z,100600.04
2023-03-31T06:08:48.036Z,100594.85
2023-03-31T06:11:17.322Z,100592.47
2023-03-31T06:13:45.880Z,100588.60
2023-03-31T06:16:17.583Z,100587.33
2023-03-31T06:18:48.039Z,100582.46
2023-03-31T06:21:16.967Z,100579.77
2023-03-31T06:23:46.682Z,100578.71
2023-03-31T06:26:15.900Z,100569.36
2023-03-31T06:28:46.975Z,100573.23
2023-03-31T06:31:16.265Z,100563.73
2023-03-31T06:33:44.567Z,100564.66
2023-03-31T06:36:13.422Z,100556.23
2023-03-31T06:38:42.088Z,100553.89
2023-03-31T06:41:12.082Z,100557.21
2023-03-31T06:43:41.255Z,100550.76
2023-03-31T06:46:10.773Z,100549.55
2023-03-31T06:48:39.684Z,100549.63
2023-03-31T06:51:08.981Z,100550.48
2023-03-31T06:53:37.711Z,100542.48
2023-03-31T06:56:07.734Z,100545.27
2023-03-31T06:58:36.890Z,100544.41
2023-03-31T07:01:06.270Z,100537.73
2023-03-31T07:03:37.704Z,100537.92
2023-03-31T07:06:06.300Z,100533.33
2023-03-31T07:08:34.707Z,100528.39
2023-03-31T07:11:03.040Z,100529.17
2023-03-31T07:13:32.830Z,100534.33
2023-03-31T07:16:01.356Z,100530.92
2023-03-31T07:18:34.793Z,100534.58
2023-03-31T07:21:05.777Z,100535.09
2023-03-31T07:23:36.191Z,100537.40
2023-03-31T07:26:06.560Z,100540.40
2023-03-31T07:28:36.753Z,100535.73
2023-03-31T07:31:10.709Z,100538.88
2023-03-31T07:33:39.546Z,100540.98
2023-03-31T07:36:12.540Z,100537.48
2023-03-31T07:38:47.067Z,100532.67
2023-03-31T07:41:19.485Z,100530.61
2023-03-31T07:43:47.687Z,100526.81
2023-03-31T07:46:16.792Z,100525.42
2023-03-31T07:48:46.734Z,100519.77
2023-03-31T07:51:17.129Z,100523.61
2023-03-31T07:53:45.850Z,100524.02
2023-03-31T07:56:19.919Z,100519.92
2023-03-31T07:58:48.339Z,100523.05
2023-03-31T08:01:17.306Z,100523.08
2023-03-31T08:03:46.891Z,100515.94
2023-03-31T08:06:19.509Z,100515.36
2023-03-31T08:08:48.437Z,100516.39
2023-03-31T08:11:18.164Z,100510.69
2023-03-31T08:13:46.412Z,100504.61
2023-03-31T08:16:14.927Z,100508.61
2023-03-31T08:18:43.447Z,100502.07
2023-03-31T08:21:12.476Z,100501.54
2023-03-31T08:23:40.879Z,100501.73
2023-03-31T08:26:18.324Z,100499.83
2023-03-31T08:28:49.410Z,100494.90
2023-03-31T08:31:19.040Z,100494.75
2023-03-31T08:33:47.258Z,100491.30
2023-03-31T08:36:15.959Z,100485.44
2023-03-31T08:38:48.205Z,100487.61
2023-03-31T08:41:16.446Z,100486.52
2023-03-31T08:43:46.019Z,100481.64
2023-03-31T08:46:18.029Z,100483.92
2023-03-31T08:48:56.224Z,100476.51
2023-03-31T08:51:26.045Z,100474.09
2023-03-31T08:53:57.216Z,100463.20
2023-03-31T08:56:26.248Z,100469.20
2023-03-31T08:58:55.728Z,100467.67
2023-03-31T09:01:44.394Z,100464.40
2023-03-31T09:04:33.195Z,100459.91
2023-03-31T09:07:14.149Z,100452.55
2023-03-31T09:09:53.692Z,100448.98
2023-03-31T09:12:35.584Z,100442.44
2023-03-31T09:15:09.399Z,100436.55
2023-03-31T09:17:39.399Z,100435.19
2023-03-31T09:20:16.183Z,100433.05
2023-03-31T09:22:48.591Z,100424.33
2023-03-31T09:25:21.063Z,100415.46
2023-03-31T09:27:50.967Z,100415.88
2023-03-31T09:30:21.154Z,100411.85
2023-03-31T09:32:53.499Z,100409.09
2023-03-31T09:35:26.002Z,100406.51
2023-03-31T09:37:54.477Z,100403.02
2023-03-31T09:40:23.792Z,100401.29
2023-03-31T09:42:55.261Z,100397.44
2023-03-31T09:45:23.639Z,100392.40
2023-03-31T09:47:52.716Z,100389.15
2023-03-31T09:50:25.198Z,100386.89
2023-03-31T09:52:56.476Z,100383.41
2023-03-31T09:55:39.191Z,100378.05
2023-03-31T09:58:08.438Z,100372.06
2023-03-31T10:00:37.568Z,100376.25
2023-03-31T10:03:09.221Z,100372.09
2023-03-31T10:05:38.401Z,100374.79
2023-03-31T10:08:25.915Z,100362.75
2023-03-31T10:10:54.908Z,100363.54
2023-03-31T10:13:25.323Z,100362.65
2023-03-31T10:15:54.691Z,100361.36
2023-03-31T10:18:26.490Z,100363.16
2023-03-31T10:20:58.134Z,100364.13
2023-03-31T10:23:30.614Z,100360.54
2023-03-31T10:25:59.125Z,100351.64
2023-03-31T10:28:27.521Z,100361.55
2023-03-31T10:30:56.505Z,100356.74
2023-03-31T10:33:25.716Z,100352.52
2023-03-31T10:36:08.406Z,100348.31
2023-03-31T10:38:38.074Z,100346.58
2023-03-31T10:41:07.998Z,100344.27
2023-03-31T10:43:37.996Z,100340.46
2023-03-31T10:46:06.392Z,100336.21
2023-03-31T10:48:36.226Z,100328.02
2023-03-31T10:51:14.838Z,100320.59
2023-03-31T10:53:47.328Z,100315.00
2023-03-31T10:56:16.380Z,100310.55
2023-03-31T10:59:05.418Z,100307.59
2023-03-31T11:01:34.970Z,100304.88
2023-03-31T11:04:09.986Z,100291.84
2023-03-31T11:06:56.188Z,100291.77
2023-03-31T11:09:27.674Z,100290.83
2023-03-31T11:12:01.825Z,100290.78
2023-03-31T11:14:41.838Z,100287.04
2023-03-31T11:17:14.395Z,100286.23
2023-03-31T11:19:50.664Z,100280.59
2023-03-31T11:22:32.184Z,100273.23
2023-03-31T11:25:19.216Z,100273.09
2023-03-31T11:27:53.789Z,100265.75
2023-03-31T11:30:26.746Z,100266.95
2023-03-31T11:32:57.483Z,100265.56
2023-03-31T11:35:39.038Z,100260.83
2023-03-31T11:38:11.829Z,100260.67
2023-03-31T11:40:51.116Z,100255.95
2023-03-31T11:43:39.159Z,100255.91
2023-03-31T11:46:07.795Z,100251.40
2023-03-31T11:48:38.809Z,100248.16
2023-03-31T11:51:08.093Z,100246.08
2023-03-31T11:53:37.156Z,100243.92
2023-03-31T11:56:07.797Z,100236.15
2023-03-31T11:58:39.436Z,100235.71
2023-03-31T12:01:11.119Z,100232.66
2023-03-31T12:03:39.355Z,100230.63
2023-03-31T12:06:12.881Z,100229.33
2023-03-31T12:08:53.770Z,100222.33
2023-03-31T12:11:22.013Z,100222.89
2023-03-31T12:13:56.551Z,100221.73
2023-03-31T12:16:46.107Z,100216.98
2023-03-31T12:19:17.395Z,100215.06
2023-03-31T12:21:48.500Z,100204.90
2023-03-31T12:24:16.930Z,100200.83
2023-03-31T12:26:51.013Z,100200.35
2023-03-31T12:29:19.151Z,100195.95
2023-03-31T12:31:47.420Z,100196.02
2023-03-31T12:34:16.776Z,100192.03
2023-03-31T12:36:53.503Z,100191.06
2023-03-31T12:39:25.541Z,100190.48
2023-03-31T12:42:19.627Z,100185.55
2023-03-31T12:45:06.853Z,100184.23
2023-03-31T12:47:38.754Z,100181.27
2023-03-31T12:50:16.496Z,100181.92
2023-03-31T12:52:44.813Z,100175.16
2023-03-31T12:55:22.163Z,100170.04
2023-03-31T12:57:50.616Z,100170.45
2023-03-31T13:00:21.227Z,100170.27
2023-03-31T13:02:49.693Z,100165.74
2023-03-31T13:05:36.721Z,100172.17
2023-03-31T13:08:05.954Z,100169.67
2023-03-31T13:10:34.500Z,100164.96
2023-03-31T13:13:20.953Z,100166.59
2023-03-31T13:15:56.163Z,100166.30
2023-03-31T13:18:25.283Z,100161.06
2023-03-31T13:21:01.061Z,100165.30
2023-03-31T13:23:31.420Z,100165.67
2023-03-31T13:25:59.723Z,100165.75
2023-03-31T13:28:32.103Z,100163.15
2023-03-31T13:31:03.921Z,100163.16
2023-03-31T13:33:40.440Z,100160.55
2023-03-31T13:36:18.128Z,100161.16
2023-03-31T13:39:04.426Z,100156.48
2023-03-31T13:41:33.019Z,100148.17
2023-03-31T13:44:19.608Z,100148.47
2023-03-31T13:46:59.828Z,100141.16
2023-03-31T13:49:37.578Z,100138.25
2023-03-31T13:52:10.167Z,100137.27
2023-03-31T13:54:44.827Z,100134.65
2023-03-31T13:57:32.433Z,100132.44
2023-03-31T14:00:19.957Z,100128.67
2023-03-31T14:03:02.394Z,100128.04
2023-03-31T14:05:34.034Z,100124.31
2023-03-31T14:08:04.075Z,100124.19
2023-03-31T14:10:34.476Z,100126.94
2023-03-31T14:13:12.090Z,100122.85
2023-03-31T14:15:50.408Z,100116.98
2023-03-31T14:18:36.263Z,100110.71
2023-03-31T14:21:08.413Z,100112.33
2023-03-31T14:23:37.455Z,100110.98
2023-03-31T14:26:07.978Z,100106.59
2023-03-31T14:28:37.621Z,100102.10
2023-03-31T14:31:05.862Z,100102.73
2023-03-31T14:33:34.683Z,100105.55
2023-03-31T14:36:08.422Z,100107.58
2023-03-31T14:38:37.933Z,100107.20
2023-03-31T14:41:06.112Z,100109.08
2023-03-31T14:43:35.369Z,100111.16
2023-03-31T14:46:05.218Z,100112.23
2023-03-31T14:48:34.383Z,100111.80
2023-03-31T14:51:03.366Z,100110.61
2023-03-31T14:53:33.203Z,100113.86
2023-03-31T14:56:03.472Z,100118.36
2023-03-31T14:58:35.064Z,100117.08
2023-03-31T15:01:03.925Z,100118.30
2023-03-31T15:03:33.446Z,100120.82
2023-03-31T15:06:01.639Z,100125.36
2023-03-31T15:08:30.693Z,100120.52
2023-03-31T15:11:11.943Z,100127.23
2023-03-31T15:13:46.880Z,100130.53
2023-03-31T15:16:33.114Z,100130.17
2023-03-31T15:19:05.026Z,100132.64
2023-03-31T15:21:34.608Z,100131.48
2023-03-31T15:24:03.611Z,100129.61
2023-03-31T15:26:40.422Z,100131.54
2023-03-31T15:29:31.461Z,100139.46
2023-03-31T15:31:59.842Z,100140.71
2023-03-31T15:34:33.501Z,100141.19
2023-03-31T15:37:04.071Z,100141.84
2023-03-31T15:39:32.751Z,100144.88
2023-03-31T15:42:04.189Z,100144.44
2023-03-31T15:44:46.410Z,100146.73
2023-03-31T15:47:26.272Z,100145.02
2023-03-31T15:49:55.837Z,100151.09
2023-03-31T15:52:28.660Z,100150.68
2023-03-31T15:54:57.227Z,100153.20
2023-03-31T15:57:31.503Z,100151.18
2023-03-31T16:00:02.358Z,100156.73
2023-03-31T16:02:39.591Z,100154.83
2023-03-31T16:07:57.203Z,100154.91
2023-03-31T16:10:25.756Z,100155.38
2023-03-31T16:12:57.998Z,100154.11
2023-03-31T16:15:30.581Z,100150.83
2023-03-31T16:18:00.190Z,100151.80
2023-03-31T16:20:32.983Z,100150.19
2023-03-31T16:23:02.057Z,100153.04
2023-03-31T16:25:30.998Z,100154.54
2023-03-31T16:28:00.250Z,100149.44
2023-03-31T16:30:38.309Z,100147.25
2023-03-31T16:33:07.940Z,100152.43
2023-03-31T16:35:40.159Z,100150.00
2023-03-31T16:38:09.045Z,100149.48
2023-03-31T16:40:39.217Z,100150.82
2023-03-31T16:43:20.484Z,100153.13
2023-03-31T16:45:50.351Z,100153.30
2023-03-31T16:48:19.855Z,100155.80
2023-03-31T16:50:51.494Z,100153.09
2023-03-31T16:53:23.324Z,100156.95
2023-03-31T16:55:51.954Z,100155.35
2023-03-31T16:58:21.450Z,100156.55
2023-03-31T17:00:49.879Z,100160.05
2023-03-31T17:03:20.794Z,100161.17
2023-03-31T17:05:51.637Z,100166.53
2023-03-31T17:08:20.916Z,100165.61
2023-03-31T17:11:15.340Z,100166.00
2023-03-31T17:13:44.747Z,100162.80
2023-03-31T17:16:22.182Z,100166.02
2023-03-31T17:18:58.774Z,100166.23
2023-03-31T17:21:27.354Z,100170.25
2023-03-31T17:23:55.982Z,100169.14
2023-03-31T17:26:24.261Z,100173.54
2023-03-31T17:28:52.825Z,100175.20
2023-03-31T17:31:21.650Z,100178.10
2023-03-31T17:33:50.041Z,100179.30
2023-03-31T17:36:19.615Z,100178.36
2023-03-31T17:38:48.221Z,100186.23
2023-03-31T17:41:18.065Z,100185.23
2023-03-31T17:43:49.117Z,100187.34
2023-03-31T17:46:18.083Z,100185.56
2023-03-31T17:48:48.653Z,100193.23
2023-03-31T17:51:17.959Z,100193.79
2023-03-31T17:53:49.088Z,100197.97
2023-03-31T17:56:17.665Z,100202.55
2023-03-31T17:58:46.485Z,100200.27
2023-03-31T18:01:15.720Z,100203.36
2023-03-31T18:03:46.387Z,100199.95
2023-03-31T18:06:19.364Z,100202.39
2023-03-31T18:08:48.123Z,100205.14
2023-03-31T18:11:17.369Z,100202.35
2023-03-31T18:13:47.687Z,100207.06
2023-03-31T18:16:16.029Z,100207.39
2023-03-31T18:18:44.223Z,100204.00
2023-03-31T18:21:15.775Z,100209.02
2023-03-31T18:23:44.856Z,100210.52
2023-03-31T18:26:13.538Z,100209.46
2023-03-31T18:28:43.466Z,100208.48
2023-03-31T18:31:12.572Z,100207.70
2023-03-31T18:33:41.959Z,100209.72
2023-03-31T18:36:14.099Z,100213.35
2023-03-31T18:38:43.741Z,100215.40
2023-03-31T18:41:12.932Z,100217.63
2023-03-31T18:43:44.735Z,100217.66
2023-03-31T18:46:13.951Z,100215.25
2023-03-31T18:48:42.386Z,100214.48
2023-03-31T18:51:11.140Z,100219.02
2023-03-31T18:53:41.709Z,100217.30
2023-03-31T18:56:10.111Z,100216.20
2023-03-31T18:58:39.749Z,100214.48
2023-03-31T19:01:08.036Z,100214.36
2023-03-31T19:03:39.252Z,100213.86
2023-03-31T19:06:10.342Z,100210.92
2023-03-31T19:08:38.888Z,100212.36
2023-03-31T19:11:08.640Z,100212.80
2023-03-31T19:13:39.110Z,100213.73
2023-03-31T19:16:27.647Z,100211.77
2023-03-31T19:18:56.044Z,100207.63
2023-03-31T19:21:27.221Z,100207.30
2023-03-31T19:23:55.640Z,100206.86
2023-03-31T19:26:28.374Z,100205.44
2023-03-31T19:28:59.180Z,100202.95
2023-03-31T19:31:38.473Z,100204.55
2023-03-31T19:34:11.849Z,100199.99
2023-03-31T19:36:40.977Z,100204.05
2023-03-31T19:39:09.593Z,100202.14
2023-03-31T19:41:38.956Z,100202.27
2023-03-31T19:44:07.264Z,100199.99
2023-03-31T19:46:36.306Z,100201.33
2023-03-31T19:49:04.903Z,100204.92
2023-03-31T19:51:34.535Z,100201.48
2023-03-31T19:54:02.814Z,100200.38
2023-03-31T19:56:32.802Z,100200.89
2023-03-31T19:59:01.556Z,100201.70
2023-03-31T20:01:29.979Z,100200.51
2023-03-31T20:03:59.575Z,100201.59
2023-03-31T20:06:29.135Z,100200.17
2023-03-31T20:08:58.292Z,100205.06
2023-03-31T20:11:27.840Z,100203.80
2023-03-31T20:13:57.427Z,100203.97
2023-03-31T20:16:26.421Z,100198.19
2023-03-31T20:18:56.794Z,100197.46
2023-03-31T20:21:26.407Z,100192.67
2023-03-31T20:23:57.423Z,100189.86
2023-03-31T20:26:29.952Z,100186.78
2023-03-31T20:28:58.370Z,100182.98
2023-03-31T20:31:27.662Z,100179.23
2023-03-31T20:33:56.460Z,100177.49
2023-03-31T20:36:25.554Z,100176.41
2023-03-31T20:38:54.348Z,100179.26
2023-03-31T20:41:24.567Z,100188.90
2023-03-31T20:43:53.900Z,100191.09
2023-03-31T20:46:22.500Z,100194.17
2023-03-31T20:48:53.429Z,100202.16
2023-03-31T20:51:22.612Z,100204.05
2023-03-31T20:53:53.184Z,100200.14
2023-03-31T20:56:31.891Z,100201.48
2023-03-31T20:59:00.728Z,100204.67
2023-03-31T21:01:31.194Z,100203.92
2023-03-31T21:04:02.162Z,100211.30
2023-03-31T21:06:32.755Z,100216.20
2023-03-31T21:09:01.246Z,100216.06
2023-03-31T21:11:31.234Z,100212.80
2023-03-31T21:13:59.722Z,100217.09
2023-03-31T21:16:28.519Z,100219.69
2023-03-31T21:18:59.956Z,100211.73
2023-03-31T21:21:29.203Z,100208.91
2023-03-31T21:23:58.398Z,100201.14
2023-03-31T21:26:26.673Z,100196.31
2023-03-31T21:28:59.390Z,100190.64
2023-03-31T21:31:28.002Z,100182.69
2023-03-31T21:33:59.008Z,100188.66
2023-03-31T21:36:28.138Z,100185.65
2023-03-31T21:38:57.526Z,100188.98
2023-03-31T21:41:27.487Z,100187.27
2023-03-31T21:43:56.661Z,100192.11
2023-03-31T21:46:26.904Z,100194.48
2023-03-31T21:48:55.381Z,100200.66
2023-03-31T21:51:23.752Z,100202.07
2023-03-31T21:53:55.399Z,100200.66
2023-03-31T21:56:24.550Z,100203.61
2023-03-31T21:58:53.411Z,100206.16
2023-03-31T22:01:22.606Z,100212.48
2023-03-31T22:03:52.181Z,100217.00
2023-03-31T22:06:21.646Z,100213.46
2023-03-31T22:08:49.897Z,100211.98
2023-03-31T22:11:24.720Z,100209.86
2023-03-31T22:13:53.626Z,100203.84
2023-03-31T22:16:22.397Z,100202.52
2023-03-31T22:18:52.780Z,100201.21
2023-03-31T22:21:22.386Z,100199.34
2023-03-31T22:23:51.353Z,100196.35
2023-03-31T22:26:20.228Z,100206.44
2023-03-31T22:28:48.535Z,100201.52
2023-03-31T22:31:17.580Z,100198.60
2023-03-31T22:33:46.620Z,100195.42
2023-03-31T22:36:14.777Z,100197.66
2023-03-31T22:38:43.261Z,100200.66
2023-03-31T22:41:11.891Z,100199.98
2023-03-31T22:43:40.052Z,100195.52
2023-03-31T22:46:08.641Z,100189.55
2023-03-31T22:48:37.014Z,100189.27
2023-03-31T22:51:09.091Z,100188.20
2023-03-31T22:53:37.697Z,100194.06
2023-03-31T22:56:06.517Z,100204.66
2023-03-31T22:58:34.762Z,100204.30
2023-03-31T23:01:03.403Z,100204.67
2023-03-31T23:03:33.038Z,100204.02
2023-03-31T23:06:05.449Z,100197.46
2023-03-31T23:08:37.054Z,100190.43
2023-03-31T23:11:06.396Z,100191.13
2023-03-31T23:13:38.136Z,100192.07
2023-03-31T23:16:06.930Z,100196.23
2023-03-31T23:18:36.010Z,100192.64
2023-03-31T23:21:05.867Z,100193.80
2023-03-31T23:23:34.071Z,100197.02
2023-03-31T23:26:02.772Z,100199.73
2023-03-31T23:28:31.781Z,100195.90
2023-03-31T23:30:59.914Z,100191.77
2023-03-31T23:33:29.129Z,100195.48
2023-03-31T23:36:05.261Z,100191.72
2023-03-31T23:38:34.326Z,100189.54
2023-03-31T23:41:03.734Z,100189.08
2023-03-31T23:43:32.169Z,100185.86
2023-03-31T23:46:03.372Z,100184.52
2023-03-31T23:48:32.611Z,100180.77
2023-03-31T23:51:00.889Z,100179.36
2023-03-31T23:53:29.493Z,100181.43
2023-03-31T23:56:03.700Z,100183.31
2023-03-31T23:58:32.402Z,100177.07
